sensor_id;sensor_type;location;lat;lon;timestamp;P1;durP1;ratioP1;P2;durP2;ratioP2
13560;SDS011;6852;51.686;5.314;2022-08-19T00:01:31;14.27;;;11.57;;
13560;SDS011;6852;51.686;5.314;2022-08-19T00:04:04;14.53;;;11.50;;
13560;SDS011;6852;51.686;5.314;2022-08-19T00:06:33;16.00;;;11.07;;
13560;SDS011;6852;51.686;5.314;2022-08-19T00:09:02;15.67;;;11.77;;
13560;SDS011;6852;51.686;5.314;2022-08-19T00:11:31;14.37;;;12.00;;
13560;SDS011;6852;51.686;5.314;2022-08-19T00:14:02;12.90;;;11.20;;
13560;SDS011;6852;51.686;5.314;2022-08-19T00:16:30;13.10;;;11.63;;
13560;SDS011;6852;51.686;5.314;2022-08-19T00:18:58;12.17;;;10.97;;
13560;SDS011;6852;51.686;5.314;2022-08-19T00:21:25;11.43;;;10.20;;
13560;SDS011;6852;51.686;5.314;2022-08-19T00:23:56;11.47;;;10.33;;
13560;SDS011;6852;51.686;5.314;2022-08-19T00:26:25;12.87;;;11.47;;
13560;SDS011;6852;51.686;5.314;2022-08-19T00:28:54;12.17;;;10.40;;
13560;SDS011;6852;51.686;5.314;2022-08-19T00:31:21;12.60;;;10.50;;
13560;SDS011;6852;51.686;5.314;2022-08-19T00:33:48;13.03;;;10.73;;
13560;SDS011;6852;51.686;5.314;2022-08-19T00:36:16;12.67;;;11.37;;
13560;SDS011;6852;51.686;5.314;2022-08-19T00:38:43;12.57;;;10.80;;
13560;SDS011;6852;51.686;5.314;2022-08-19T00:41:14;12.80;;;11.30;;
13560;SDS011;6852;51.686;5.314;2022-08-19T00:43:55;12.23;;;10.70;;
13560;SDS011;6852;51.686;5.314;2022-08-19T00:46:44;12.23;;;10.93;;
13560;SDS011;6852;51.686;5.314;2022-08-19T00:52:13;18.40;;;12.13;;
13560;SDS011;6852;51.686;5.314;2022-08-19T00:54:43;13.40;;;11.77;;
13560;SDS011;6852;51.686;5.314;2022-08-19T00:57:18;14.17;;;11.87;;
13560;SDS011;6852;51.686;5.314;2022-08-19T00:59:51;12.70;;;11.40;;
13560;SDS011;6852;51.686;5.314;2022-08-19T01:02:28;15.03;;;12.23;;
13560;SDS011;6852;51.686;5.314;2022-08-19T01:04:56;14.00;;;11.60;;
13560;SDS011;6852;51.686;5.314;2022-08-19T01:07:23;14.50;;;12.40;;
13560;SDS011;6852;51.686;5.314;2022-08-19T01:09:50;17.20;;;13.20;;
13560;SDS011;6852;51.686;5.314;2022-08-19T01:12:18;17.07;;;14.10;;
13560;SDS011;6852;51.686;5.314;2022-08-19T01:14:46;16.67;;;13.23;;
13560;SDS011;6852;51.686;5.314;2022-08-19T01:17:13;16.60;;;13.17;;
13560;SDS011;6852;51.686;5.314;2022-08-19T01:19:42;18.00;;;12.60;;
13560;SDS011;6852;51.686;5.314;2022-08-19T01:22:14;16.40;;;12.53;;
13560;SDS011;6852;51.686;5.314;2022-08-19T01:24:54;17.93;;;12.53;;
13560;SDS011;6852;51.686;5.314;2022-08-19T01:27:21;15.27;;;12.80;;
13560;SDS011;6852;51.686;5.314;2022-08-19T01:29:49;17.07;;;12.43;;
13560;SDS011;6852;51.686;5.314;2022-08-19T01:32:16;16.93;;;13.53;;
13560;SDS011;6852;51.686;5.314;2022-08-19T01:34:59;15.83;;;13.17;;
13560;SDS011;6852;51.686;5.314;2022-08-19T01:37:27;17.03;;;12.67;;
13560;SDS011;6852;51.686;5.314;2022-08-19T01:39:56;18.93;;;14.10;;
13560;SDS011;6852;51.686;5.314;2022-08-19T01:42:24;18.60;;;15.63;;
13560;SDS011;6852;51.686;5.314;2022-08-19T01:44:55;17.90;;;14.17;;
13560;SDS011;6852;51.686;5.314;2022-08-19T01:47:22;16.70;;;13.83;;
13560;SDS011;6852;51.686;5.314;2022-08-19T01:49:49;17.43;;;14.53;;
13560;SDS011;6852;51.686;5.314;2022-08-19T01:52:16;21.67;;;14.80;;
13560;SDS011;6852;51.686;5.314;2022-08-19T01:54:43;18.47;;;14.97;;
13560;SDS011;6852;51.686;5.314;2022-08-19T01:57:10;19.43;;;15.60;;
13560;SDS011;6852;51.686;5.314;2022-08-19T01:59:39;20.03;;;14.83;;
13560;SDS011;6852;51.686;5.314;2022-08-19T02:02:08;19.20;;;15.10;;
13560;SDS011;6852;51.686;5.314;2022-08-19T02:04:35;17.57;;;14.73;;
13560;SDS011;6852;51.686;5.314;2022-08-19T02:07:04;18.10;;;15.23;;
13560;SDS011;6852;51.686;5.314;2022-08-19T02:09:32;19.30;;;14.70;;
13560;SDS011;6852;51.686;5.314;2022-08-19T02:11:59;19.00;;;15.57;;
13560;SDS011;6852;51.686;5.314;2022-08-19T02:14:26;21.00;;;15.97;;
13560;SDS011;6852;51.686;5.314;2022-08-19T02:16:53;20.80;;;15.90;;
13560;SDS011;6852;51.686;5.314;2022-08-19T02:19:20;18.27;;;15.63;;
13560;SDS011;6852;51.686;5.314;2022-08-19T02:21:46;20.47;;;15.30;;
13560;SDS011;6852;51.686;5.314;2022-08-19T02:24:13;20.77;;;15.27;;
13560;SDS011;6852;51.686;5.314;2022-08-19T02:26:40;21.40;;;17.43;;
13560;SDS011;6852;51.686;5.314;2022-08-19T02:29:07;22.93;;;17.57;;
13560;SDS011;6852;51.686;5.314;2022-08-19T02:31:34;23.17;;;17.67;;
13560;SDS011;6852;51.686;5.314;2022-08-19T02:34:01;22.07;;;16.30;;
13560;SDS011;6852;51.686;5.314;2022-08-19T02:36:28;19.93;;;15.70;;
13560;SDS011;6852;51.686;5.314;2022-08-19T02:38:55;22.10;;;16.77;;
13560;SDS011;6852;51.686;5.314;2022-08-19T02:41:25;19.33;;;15.40;;
13560;SDS011;6852;51.686;5.314;2022-08-19T02:43:54;19.10;;;15.43;;
13560;SDS011;6852;51.686;5.314;2022-08-19T02:46:44;18.97;;;13.93;;
13560;SDS011;6852;51.686;5.314;2022-08-19T02:49:13;19.60;;;14.10;;
13560;SDS011;6852;51.686;5.314;2022-08-19T02:51:43;16.70;;;14.13;;
13560;SDS011;6852;51.686;5.314;2022-08-19T02:54:11;19.03;;;14.37;;
13560;SDS011;6852;51.686;5.314;2022-08-19T02:56:39;18.67;;;14.80;;
13560;SDS011;6852;51.686;5.314;2022-08-19T02:59:07;17.50;;;14.07;;
13560;SDS011;6852;51.686;5.314;2022-08-19T03:01:37;22.00;;;15.17;;
13560;SDS011;6852;51.686;5.314;2022-08-19T03:04:07;20.23;;;16.33;;
13560;SDS011;6852;51.686;5.314;2022-08-19T03:06:36;18.57;;;15.07;;
13560;SDS011;6852;51.686;5.314;2022-08-19T03:09:05;17.90;;;15.30;;
13560;SDS011;6852;51.686;5.314;2022-08-19T03:11:31;18.30;;;15.67;;
13560;SDS011;6852;51.686;5.314;2022-08-19T03:13:59;19.97;;;16.13;;
13560;SDS011;6852;51.686;5.314;2022-08-19T03:16:27;23.50;;;15.40;;
13560;SDS011;6852;51.686;5.314;2022-08-19T03:18:58;19.60;;;15.30;;
13560;SDS011;6852;51.686;5.314;2022-08-19T03:21:26;17.30;;;14.50;;
13560;SDS011;6852;51.686;5.314;2022-08-19T03:23:56;17.20;;;14.50;;
13560;SDS011;6852;51.686;5.314;2022-08-19T03:26:24;18.77;;;14.13;;
13560;SDS011;6852;51.686;5.314;2022-08-19T03:28:51;18.73;;;15.83;;
13560;SDS011;6852;51.686;5.314;2022-08-19T03:31:24;20.43;;;15.43;;
13560;SDS011;6852;51.686;5.314;2022-08-19T03:34:13;18.37;;;14.67;;
13560;SDS011;6852;51.686;5.314;2022-08-19T03:36:44;19.80;;;15.57;;
13560;SDS011;6852;51.686;5.314;2022-08-19T03:39:12;19.87;;;14.97;;
13560;SDS011;6852;51.686;5.314;2022-08-19T03:41:41;19.97;;;15.43;;
13560;SDS011;6852;51.686;5.314;2022-08-19T03:44:12;18.00;;;14.73;;
13560;SDS011;6852;51.686;5.314;2022-08-19T03:46:44;18.13;;;14.93;;
13560;SDS011;6852;51.686;5.314;2022-08-19T03:49:12;22.20;;;14.93;;
13560;SDS011;6852;51.686;5.314;2022-08-19T03:51:40;20.83;;;15.67;;
13560;SDS011;6852;51.686;5.314;2022-08-19T03:54:10;16.90;;;14.63;;
13560;SDS011;6852;51.686;5.314;2022-08-19T03:56:39;17.33;;;14.67;;
13560;SDS011;6852;51.686;5.314;2022-08-19T03:59:09;21.67;;;16.20;;
13560;SDS011;6852;51.686;5.314;2022-08-19T04:01:39;19.83;;;15.60;;
13560;SDS011;6852;51.686;5.314;2022-08-19T04:04:07;20.67;;;16.73;;
13560;SDS011;6852;51.686;5.314;2022-08-19T04:06:35;18.97;;;15.43;;
13560;SDS011;6852;51.686;5.314;2022-08-19T04:09:06;20.10;;;15.83;;
13560;SDS011;6852;51.686;5.314;2022-08-19T04:11:36;22.33;;;15.60;;
13560;SDS011;6852;51.686;5.314;2022-08-19T04:14:18;22.20;;;15.50;;
13560;SDS011;6852;51.686;5.314;2022-08-19T04:16:47;23.70;;;16.37;;
13560;SDS011;6852;51.686;5.314;2022-08-19T04:19:15;21.83;;;15.90;;
13560;SDS011;6852;51.686;5.314;2022-08-19T04:21:44;21.53;;;16.87;;
13560;SDS011;6852;51.686;5.314;2022-08-19T04:24:13;23.33;;;17.23;;
13560;SDS011;6852;51.686;5.314;2022-08-19T04:26:40;25.30;;;18.43;;
13560;SDS011;6852;51.686;5.314;2022-08-19T04:29:12;26.20;;;18.57;;
13560;SDS011;6852;51.686;5.314;2022-08-19T04:31:41;24.47;;;19.00;;
13560;SDS011;6852;51.686;5.314;2022-08-19T04:34:11;30.87;;;20.77;;
13560;SDS011;6852;51.686;5.314;2022-08-19T04:36:40;26.03;;;18.23;;
13560;SDS011;6852;51.686;5.314;2022-08-19T04:39:09;32.07;;;20.63;;
13560;SDS011;6852;51.686;5.314;2022-08-19T04:41:39;27.20;;;20.30;;
13560;SDS011;6852;51.686;5.314;2022-08-19T04:44:25;26.43;;;19.77;;
13560;SDS011;6852;51.686;5.314;2022-08-19T04:46:52;32.27;;;22.23;;
13560;SDS011;6852;51.686;5.314;2022-08-19T04:49:20;30.23;;;20.70;;
13560;SDS011;6852;51.686;5.314;2022-08-19T04:51:49;30.10;;;21.23;;
13560;SDS011;6852;51.686;5.314;2022-08-19T04:54:17;33.30;;;22.50;;
13560;SDS011;6852;51.686;5.314;2022-08-19T04:57:04;35.97;;;25.77;;
13560;SDS011;6852;51.686;5.314;2022-08-19T04:59:35;35.73;;;23.87;;
13560;SDS011;6852;51.686;5.314;2022-08-19T05:02:03;37.97;;;23.67;;
13560;SDS011;6852;51.686;5.314;2022-08-19T05:04:30;36.17;;;25.30;;
13560;SDS011;6852;51.686;5.314;2022-08-19T05:06:59;34.60;;;25.47;;
13560;SDS011;6852;51.686;5.314;2022-08-19T05:09:28;35.97;;;25.17;;
13560;SDS011;6852;51.686;5.314;2022-08-19T05:12:16;37.70;;;26.07;;
13560;SDS011;6852;51.686;5.314;2022-08-19T05:14:44;38.57;;;24.73;;
13560;SDS011;6852;51.686;5.314;2022-08-19T05:17:13;40.13;;;25.03;;
13560;SDS011;6852;51.686;5.314;2022-08-19T05:20:00;40.10;;;26.27;;
13560;SDS011;6852;51.686;5.314;2022-08-19T05:22:47;40.43;;;26.27;;
13560;SDS011;6852;51.686;5.314;2022-08-19T05:25:16;40.27;;;26.17;;
13560;SDS011;6852;51.686;5.314;2022-08-19T05:27:46;41.77;;;26.73;;
13560;SDS011;6852;51.686;5.314;2022-08-19T05:30:14;40.47;;;26.17;;
13560;SDS011;6852;51.686;5.314;2022-08-19T05:32:41;40.50;;;26.80;;
13560;SDS011;6852;51.686;5.314;2022-08-19T05:35:09;39.53;;;26.17;;
13560;SDS011;6852;51.686;5.314;2022-08-19T05:37:36;43.63;;;27.07;;
13560;SDS011;6852;51.686;5.314;2022-08-19T05:40:03;41.03;;;27.27;;
13560;SDS011;6852;51.686;5.314;2022-08-19T05:42:30;38.80;;;25.40;;
13560;SDS011;6852;51.686;5.314;2022-08-19T05:44:58;41.10;;;26.83;;
13560;SDS011;6852;51.686;5.314;2022-08-19T05:47:24;43.83;;;26.73;;
13560;SDS011;6852;51.686;5.314;2022-08-19T05:49:51;44.50;;;27.97;;
13560;SDS011;6852;51.686;5.314;2022-08-19T05:52:19;43.33;;;27.67;;
13560;SDS011;6852;51.686;5.314;2022-08-19T05:54:51;42.27;;;26.27;;
13560;SDS011;6852;51.686;5.314;2022-08-19T05:57:21;38.47;;;26.03;;
13560;SDS011;6852;51.686;5.314;2022-08-19T05:59:49;41.27;;;27.33;;
13560;SDS011;6852;51.686;5.314;2022-08-19T06:02:23;43.60;;;27.47;;
13560;SDS011;6852;51.686;5.314;2022-08-19T06:04:51;43.07;;;26.37;;
13560;SDS011;6852;51.686;5.314;2022-08-19T06:07:18;42.10;;;27.53;;
13560;SDS011;6852;51.686;5.314;2022-08-19T06:09:45;40.57;;;26.73;;
13560;SDS011;6852;51.686;5.314;2022-08-19T06:12:26;43.57;;;26.97;;
13560;SDS011;6852;51.686;5.314;2022-08-19T06:14:55;42.37;;;27.53;;
13560;SDS011;6852;51.686;5.314;2022-08-19T06:17:27;39.23;;;25.20;;
13560;SDS011;6852;51.686;5.314;2022-08-19T06:19:56;37.50;;;25.83;;
13560;SDS011;6852;51.686;5.314;2022-08-19T06:22:24;40.73;;;26.13;;
13560;SDS011;6852;51.686;5.314;2022-08-19T06:24:51;38.33;;;25.60;;
13560;SDS011;6852;51.686;5.314;2022-08-19T06:27:20;40.47;;;26.33;;
13560;SDS011;6852;51.686;5.314;2022-08-19T06:29:47;40.33;;;23.97;;
13560;SDS011;6852;51.686;5.314;2022-08-19T06:32:15;41.50;;;24.00;;
13560;SDS011;6852;51.686;5.314;2022-08-19T06:34:44;42.63;;;23.67;;
13560;SDS011;6852;51.686;5.314;2022-08-19T06:37:11;47.13;;;25.57;;
13560;SDS011;6852;51.686;5.314;2022-08-19T06:39:38;41.30;;;24.17;;
13560;SDS011;6852;51.686;5.314;2022-08-19T06:42:07;41.00;;;24.47;;
13560;SDS011;6852;51.686;5.314;2022-08-19T06:44:38;41.93;;;24.70;;
13560;SDS011;6852;51.686;5.314;2022-08-19T06:47:10;42.70;;;24.00;;
13560;SDS011;6852;51.686;5.314;2022-08-19T06:49:50;40.60;;;23.73;;
13560;SDS011;6852;51.686;5.314;2022-08-19T06:52:32;42.17;;;25.17;;
13560;SDS011;6852;51.686;5.314;2022-08-19T06:55:02;44.50;;;25.93;;
13560;SDS011;6852;51.686;5.314;2022-08-19T06:57:31;41.77;;;26.03;;
13560;SDS011;6852;51.686;5.314;2022-08-19T06:59:59;42.07;;;25.23;;
13560;SDS011;6852;51.686;5.314;2022-08-19T07:02:26;39.57;;;24.27;;
13560;SDS011;6852;51.686;5.314;2022-08-19T07:04:53;39.13;;;25.27;;
13560;SDS011;6852;51.686;5.314;2022-08-19T07:07:20;47.00;;;26.23;;
13560;SDS011;6852;51.686;5.314;2022-08-19T07:09:49;41.87;;;25.63;;
13560;SDS011;6852;51.686;5.314;2022-08-19T07:12:25;40.83;;;25.30;;
13560;SDS011;6852;51.686;5.314;2022-08-19T07:14:56;39.00;;;22.97;;
13560;SDS011;6852;51.686;5.314;2022-08-19T07:17:24;36.10;;;23.17;;
13560;SDS011;6852;51.686;5.314;2022-08-19T07:19:51;41.20;;;23.60;;
13560;SDS011;6852;51.686;5.314;2022-08-19T07:22:19;47.07;;;24.77;;
13560;SDS011;6852;51.686;5.314;2022-08-19T07:24:49;36.83;;;22.07;;
13560;SDS011;6852;51.686;5.314;2022-08-19T07:27:17;35.93;;;20.83;;
13560;SDS011;6852;51.686;5.314;2022-08-19T07:29:50;45.77;;;25.03;;
13560;SDS011;6852;51.686;5.314;2022-08-19T07:32:22;41.13;;;24.30;;
13560;SDS011;6852;51.686;5.314;2022-08-19T07:34:52;46.10;;;26.13;;
13560;SDS011;6852;51.686;5.314;2022-08-19T07:37:22;44.37;;;23.77;;
13560;SDS011;6852;51.686;5.314;2022-08-19T07:39:55;43.93;;;24.87;;
13560;SDS011;6852;51.686;5.314;2022-08-19T07:42:22;53.83;;;25.70;;
13560;SDS011;6852;51.686;5.314;2022-08-19T07:44:49;57.53;;;26.23;;
13560;SDS011;6852;51.686;5.314;2022-08-19T07:47:16;42.47;;;24.90;;
13560;SDS011;6852;51.686;5.314;2022-08-19T07:50:06;48.37;;;25.80;;
13560;SDS011;6852;51.686;5.314;2022-08-19T07:52:35;51.83;;;27.37;;
13560;SDS011;6852;51.686;5.314;2022-08-19T07:55:05;47.60;;;26.73;;
13560;SDS011;6852;51.686;5.314;2022-08-19T07:57:54;50.20;;;27.73;;
13560;SDS011;6852;51.686;5.314;2022-08-19T08:00:21;41.40;;;24.93;;
13560;SDS011;6852;51.686;5.314;2022-08-19T08:02:49;46.20;;;25.93;;
13560;SDS011;6852;51.686;5.314;2022-08-19T08:05:16;39.33;;;25.63;;
13560;SDS011;6852;51.686;5.314;2022-08-19T08:08:08;41.87;;;24.93;;
13560;SDS011;6852;51.686;5.314;2022-08-19T08:10:53;40.40;;;25.43;;
13560;SDS011;6852;51.686;5.314;2022-08-19T08:13:23;39.17;;;24.27;;
13560;SDS011;6852;51.686;5.314;2022-08-19T08:15:51;37.60;;;23.77;;
13560;SDS011;6852;51.686;5.314;2022-08-19T08:18:22;39.10;;;23.97;;
13560;SDS011;6852;51.686;5.314;2022-08-19T08:20:55;43.93;;;25.73;;
13560;SDS011;6852;51.686;5.314;2022-08-19T08:23:23;36.50;;;22.73;;
13560;SDS011;6852;51.686;5.314;2022-08-19T08:25:53;33.17;;;21.87;;
13560;SDS011;6852;51.686;5.314;2022-08-19T08:28:23;34.90;;;22.33;;
13560;SDS011;6852;51.686;5.314;2022-08-19T08:30:55;30.97;;;21.60;;
13560;SDS011;6852;51.686;5.314;2022-08-19T08:33:24;41.03;;;22.73;;
13560;SDS011;6852;51.686;5.314;2022-08-19T08:36:09;41.13;;;23.87;;
13560;SDS011;6852;51.686;5.314;2022-08-19T08:38:37;41.77;;;24.43;;
13560;SDS011;6852;51.686;5.314;2022-08-19T08:41:18;43.20;;;25.87;;
13560;SDS011;6852;51.686;5.314;2022-08-19T08:43:54;38.27;;;24.40;;
13560;SDS011;6852;51.686;5.314;2022-08-19T08:46:30;36.70;;;23.97;;
13560;SDS011;6852;51.686;5.314;2022-08-19T08:49:10;38.73;;;25.60;;
13560;SDS011;6852;51.686;5.314;2022-08-19T08:51:51;38.37;;;23.77;;
13560;SDS011;6852;51.686;5.314;2022-08-19T08:54:37;35.20;;;23.53;;
13560;SDS011;6852;51.686;5.314;2022-08-19T08:57:25;32.57;;;22.00;;
13560;SDS011;6852;51.686;5.314;2022-08-19T09:00:10;34.40;;;21.13;;
13560;SDS011;6852;51.686;5.314;2022-08-19T09:02:43;33.73;;;21.77;;
13560;SDS011;6852;51.686;5.314;2022-08-19T09:05:17;34.97;;;21.43;;
13560;SDS011;6852;51.686;5.314;2022-08-19T09:11:19;31.90;;;21.80;;
13560;SDS011;6852;51.686;5.314;2022-08-19T09:14:11;33.23;;;22.07;;
13560;SDS011;6852;51.686;5.314;2022-08-19T09:17:09;31.50;;;22.27;;
13560;SDS011;6852;51.686;5.314;2022-08-19T09:19:48;31.80;;;21.93;;
13560;SDS011;6852;51.686;5.314;2022-08-19T09:22:19;33.53;;;22.50;;
13560;SDS011;6852;51.686;5.314;2022-08-19T09:24:52;32.37;;;22.10;;
13560;SDS011;6852;51.686;5.314;2022-08-19T09:27:20;34.13;;;23.67;;
13560;SDS011;6852;51.686;5.314;2022-08-19T09:30:08;38.50;;;23.37;;
13560;SDS011;6852;51.686;5.314;2022-08-19T09:32:37;32.10;;;23.97;;
13560;SDS011;6852;51.686;5.314;2022-08-19T09:35:08;33.33;;;23.40;;
13560;SDS011;6852;51.686;5.314;2022-08-19T09:37:35;28.57;;;21.50;;
13560;SDS011;6852;51.686;5.314;2022-08-19T09:40:03;34.07;;;22.67;;
13560;SDS011;6852;51.686;5.314;2022-08-19T09:42:30;30.63;;;21.33;;
13560;SDS011;6852;51.686;5.314;2022-08-19T09:45:00;29.07;;;20.67;;
13560;SDS011;6852;51.686;5.314;2022-08-19T09:47:35;28.17;;;20.47;;
13560;SDS011;6852;51.686;5.314;2022-08-19T09:50:06;28.87;;;19.77;;
13560;SDS011;6852;51.686;5.314;2022-08-19T09:52:35;29.80;;;21.40;;
13560;SDS011;6852;51.686;5.314;2022-08-19T09:55:07;26.57;;;20.03;;
13560;SDS011;6852;51.686;5.314;2022-08-19T09:57:36;31.03;;;21.77;;
13560;SDS011;6852;51.686;5.314;2022-08-19T10:00:04;30.30;;;21.57;;
13560;SDS011;6852;51.686;5.314;2022-08-19T10:02:34;32.40;;;22.27;;
13560;SDS011;6852;51.686;5.314;2022-08-19T10:05:01;35.83;;;23.20;;
13560;SDS011;6852;51.686;5.314;2022-08-19T10:07:52;32.67;;;23.07;;
13560;SDS011;6852;51.686;5.314;2022-08-19T10:10:22;32.50;;;22.43;;
13560;SDS011;6852;51.686;5.314;2022-08-19T10:12:49;31.10;;;21.40;;
13560;SDS011;6852;51.686;5.314;2022-08-19T10:15:16;35.47;;;22.90;;
13560;SDS011;6852;51.686;5.314;2022-08-19T10:17:54;33.50;;;22.83;;
13560;SDS011;6852;51.686;5.314;2022-08-19T10:20:23;27.70;;;22.23;;
13560;SDS011;6852;51.686;5.314;2022-08-19T10:22:51;36.30;;;23.73;;
13560;SDS011;6852;51.686;5.314;2022-08-19T10:25:18;33.47;;;22.77;;
13560;SDS011;6852;51.686;5.314;2022-08-19T10:27:45;34.77;;;23.93;;
13560;SDS011;6852;51.686;5.314;2022-08-19T10:30:21;36.37;;;22.93;;
13560;SDS011;6852;51.686;5.314;2022-08-19T10:32:50;32.47;;;23.90;;
13560;SDS011;6852;51.686;5.314;2022-08-19T10:35:18;34.07;;;23.70;;
13560;SDS011;6852;51.686;5.314;2022-08-19T10:37:47;35.43;;;25.00;;
13560;SDS011;6852;51.686;5.314;2022-08-19T10:40:25;36.57;;;24.43;;
13560;SDS011;6852;51.686;5.314;2022-08-19T10:42:54;40.47;;;24.90;;
13560;SDS011;6852;51.686;5.314;2022-08-19T10:45:22;38.00;;;25.17;;
13560;SDS011;6852;51.686;5.314;2022-08-19T10:47:53;33.60;;;25.00;;
13560;SDS011;6852;51.686;5.314;2022-08-19T10:50:21;35.10;;;25.47;;
13560;SDS011;6852;51.686;5.314;2022-08-19T10:53:07;33.57;;;25.20;;
13560;SDS011;6852;51.686;5.314;2022-08-19T10:55:35;39.43;;;26.73;;
13560;SDS011;6852;51.686;5.314;2022-08-19T10:58:21;33.63;;;23.77;;
13560;SDS011;6852;51.686;5.314;2022-08-19T11:00:53;37.03;;;23.53;;
13560;SDS011;6852;51.686;5.314;2022-08-19T11:03:22;34.67;;;23.33;;
13560;SDS011;6852;51.686;5.314;2022-08-19T11:05:59;30.60;;;22.47;;
13560;SDS011;6852;51.686;5.314;2022-08-19T11:08:26;29.90;;;21.67;;
13560;SDS011;6852;51.686;5.314;2022-08-19T11:10:54;29.50;;;21.33;;
13560;SDS011;6852;51.686;5.314;2022-08-19T11:13:27;31.13;;;22.70;;
13560;SDS011;6852;51.686;5.314;2022-08-19T11:15:58;30.57;;;21.57;;
13560;SDS011;6852;51.686;5.314;2022-08-19T11:18:37;32.87;;;22.70;;
13560;SDS011;6852;51.686;5.314;2022-08-19T11:21:06;29.07;;;19.97;;
13560;SDS011;6852;51.686;5.314;2022-08-19T11:23:38;25.57;;;21.13;;
13560;SDS011;6852;51.686;5.314;2022-08-19T11:26:06;27.47;;;21.37;;
13560;SDS011;6852;51.686;5.314;2022-08-19T11:28:33;29.40;;;22.63;;
13560;SDS011;6852;51.686;5.314;2022-08-19T11:31:00;33.10;;;23.90;;
13560;SDS011;6852;51.686;5.314;2022-08-19T11:33:30;27.63;;;20.67;;
13560;SDS011;6852;51.686;5.314;2022-08-19T11:35:58;36.17;;;23.33;;
13560;SDS011;6852;51.686;5.314;2022-08-19T11:38:26;30.43;;;21.80;;
13560;SDS011;6852;51.686;5.314;2022-08-19T11:40:54;27.93;;;21.00;;
13560;SDS011;6852;51.686;5.314;2022-08-19T11:43:25;25.60;;;18.40;;
13560;SDS011;6852;51.686;5.314;2022-08-19T11:45:53;23.07;;;19.10;;
13560;SDS011;6852;51.686;5.314;2022-08-19T11:48:21;25.83;;;20.30;;
13560;SDS011;6852;51.686;5.314;2022-08-19T11:50:49;28.33;;;20.13;;
13560;SDS011;6852;51.686;5.314;2022-08-19T11:53:16;24.93;;;18.67;;
13560;SDS011;6852;51.686;5.314;2022-08-19T11:55:50;26.20;;;19.50;;
13560;SDS011;6852;51.686;5.314;2022-08-19T11:58:22;27.10;;;19.67;;
13560;SDS011;6852;51.686;5.314;2022-08-19T12:00:51;22.67;;;18.67;;
13560;SDS011;6852;51.686;5.314;2022-08-19T12:03:18;25.17;;;18.43;;
13560;SDS011;6852;51.686;5.314;2022-08-19T12:05:45;29.70;;;20.13;;
13560;SDS011;6852;51.686;5.314;2022-08-19T12:08:12;22.43;;;17.70;;
13560;SDS011;6852;51.686;5.314;2022-08-19T12:10:47;22.41;;;16.26;;
13560;SDS011;6852;51.686;5.314;2022-08-19T12:13:14;23.83;;;19.17;;
13560;SDS011;6852;51.686;5.314;2022-08-19T12:15:45;26.70;;;18.40;;
13560;SDS011;6852;51.686;5.314;2022-08-19T12:18:13;22.53;;;16.53;;
13560;SDS011;6852;51.686;5.314;2022-08-19T12:20:41;20.93;;;15.97;;
13560;SDS011;6852;51.686;5.314;2022-08-19T12:23:14;19.33;;;14.73;;
13560;SDS011;6852;51.686;5.314;2022-08-19T12:25:46;19.20;;;15.00;;
13560;SDS011;6852;51.686;5.314;2022-08-19T12:28:22;23.53;;;15.87;;
13560;SDS011;6852;51.686;5.314;2022-08-19T12:30:50;18.87;;;13.27;;
13560;SDS011;6852;51.686;5.314;2022-08-19T12:33:18;19.07;;;15.07;;
13560;SDS011;6852;51.686;5.314;2022-08-19T12:35:52;18.07;;;13.20;;
13560;SDS011;6852;51.686;5.314;2022-08-19T12:38:20;18.27;;;13.33;;
13560;SDS011;6852;51.686;5.314;2022-08-19T12:40:50;17.07;;;12.47;;
13560;SDS011;6852;51.686;5.314;2022-08-19T12:43:23;16.90;;;11.73;;
13560;SDS011;6852;51.686;5.314;2022-08-19T12:45:50;13.47;;;11.10;;
13560;SDS011;6852;51.686;5.314;2022-08-19T12:48:17;17.87;;;12.77;;
13560;SDS011;6852;51.686;5.314;2022-08-19T12:51:00;15.93;;;12.60;;
13560;SDS011;6852;51.686;5.314;2022-08-19T12:53:32;16.70;;;12.53;;
13560;SDS011;6852;51.686;5.314;2022-08-19T12:56:04;24.03;;;15.87;;
13560;SDS011;6852;51.686;5.314;2022-08-19T12:58:37;27.67;;;19.83;;
13560;SDS011;6852;51.686;5.314;2022-08-19T13:01:09;23.37;;;18.80;;
13560;SDS011;6852;51.686;5.314;2022-08-19T13:03:37;25.00;;;17.77;;
13560;SDS011;6852;51.686;5.314;2022-08-19T13:06:06;23.10;;;18.57;;
13560;SDS011;6852;51.686;5.314;2022-08-19T13:08:33;29.40;;;20.63;;
13560;SDS011;6852;51.686;5.314;2022-08-19T13:11:09;31.27;;;22.90;;
13560;SDS011;6852;51.686;5.314;2022-08-19T13:13:44;33.47;;;24.27;;
13560;SDS011;6852;51.686;5.314;2022-08-19T13:16:14;32.70;;;25.20;;
13560;SDS011;6852;51.686;5.314;2022-08-19T13:18:42;37.40;;;26.30;;
13560;SDS011;6852;51.686;5.314;2022-08-19T13:21:12;35.47;;;26.27;;
13560;SDS011;6852;51.686;5.314;2022-08-19T13:23:39;36.10;;;24.97;;
13560;SDS011;6852;51.686;5.314;2022-08-19T13:26:08;37.03;;;26.10;;
13560;SDS011;6852;51.686;5.314;2022-08-19T13:28:36;33.07;;;25.00;;
13560;SDS011;6852;51.686;5.314;2022-08-19T13:31:22;33.97;;;23.97;;
13560;SDS011;6852;51.686;5.314;2022-08-19T13:34:10;32.10;;;24.43;;
13560;SDS011;6852;51.686;5.314;2022-08-19T13:36:37;26.93;;;20.73;;
13560;SDS011;6852;51.686;5.314;2022-08-19T13:39:05;27.10;;;19.67;;
13560;SDS011;6852;51.686;5.314;2022-08-19T13:41:33;20.50;;;16.97;;
13560;SDS011;6852;51.686;5.314;2022-08-19T13:44:01;22.90;;;17.33;;
13560;SDS011;6852;51.686;5.314;2022-08-19T13:46:28;22.00;;;16.50;;
13560;SDS011;6852;51.686;5.314;2022-08-19T13:48:56;23.70;;;18.27;;
13560;SDS011;6852;51.686;5.314;2022-08-19T13:51:23;24.87;;;18.67;;
13560;SDS011;6852;51.686;5.314;2022-08-19T13:53:50;25.97;;;18.20;;
13560;SDS011;6852;51.686;5.314;2022-08-19T13:56:18;21.67;;;15.93;;
13560;SDS011;6852;51.686;5.314;2022-08-19T13:58:51;20.53;;;15.13;;
13560;SDS011;6852;51.686;5.314;2022-08-19T14:01:19;22.10;;;16.20;;
13560;SDS011;6852;51.686;5.314;2022-08-19T14:03:49;20.90;;;16.00;;
13560;SDS011;6852;51.686;5.314;2022-08-19T14:06:16;19.53;;;13.80;;
13560;SDS011;6852;51.686;5.314;2022-08-19T14:08:43;17.30;;;13.20;;
13560;SDS011;6852;51.686;5.314;2022-08-19T14:11:11;19.77;;;14.07;;
13560;SDS011;6852;51.686;5.314;2022-08-19T14:13:38;14.90;;;12.43;;
13560;SDS011;6852;51.686;5.314;2022-08-19T14:16:06;15.87;;;12.50;;
13560;SDS011;6852;51.686;5.314;2022-08-19T14:18:35;18.53;;;12.13;;
13560;SDS011;6852;51.686;5.314;2022-08-19T14:21:02;17.23;;;12.47;;
13560;SDS011;6852;51.686;5.314;2022-08-19T14:23:31;15.95;;;13.65;;
13560;SDS011;6852;51.686;5.314;2022-08-19T14:26:09;17.07;;;13.37;;
13560;SDS011;6852;51.686;5.314;2022-08-19T14:28:38;18.23;;;13.30;;
13560;SDS011;6852;51.686;5.314;2022-08-19T14:31:08;16.60;;;11.30;;
13560;SDS011;6852;51.686;5.314;2022-08-19T14:33:42;15.83;;;10.50;;
13560;SDS011;6852;51.686;5.314;2022-08-19T14:36:09;8.47;;;7.30;;
13560;SDS011;6852;51.686;5.314;2022-08-19T14:38:36;7.13;;;6.10;;
13560;SDS011;6852;51.686;5.314;2022-08-19T14:41:10;5.03;;;4.53;;
13560;SDS011;6852;51.686;5.314;2022-08-19T14:43:43;4.33;;;3.67;;
13560;SDS011;6852;51.686;5.314;2022-08-19T14:46:14;3.53;;;2.97;;
13560;SDS011;6852;51.686;5.314;2022-08-19T14:48:43;3.73;;;3.17;;
13560;SDS011;6852;51.686;5.314;2022-08-19T14:51:10;4.30;;;3.10;;
13560;SDS011;6852;51.686;5.314;2022-08-19T14:53:37;3.53;;;3.23;;
13560;SDS011;6852;51.686;5.314;2022-08-19T14:56:08;5.87;;;2.60;;
13560;SDS011;6852;51.686;5.314;2022-08-19T14:58:37;5.73;;;3.30;;
13560;SDS011;6852;51.686;5.314;2022-08-19T15:01:07;3.50;;;3.20;;
13560;SDS011;6852;51.686;5.314;2022-08-19T15:03:34;5.30;;;4.00;;